Freedom Township, Michigan
Current Conditions -  °F | °C
As of 3:53 PM on Thursday 27 Nov 2014 (Local Time) from KARB Reporting Station
Overcast Overcast  
Wind Chill: 26°   Ceiling: 4000
Heat Index: 32°   Visibility: 10mi
Dew Point: 22°   Wind: 7mph
Humidity: 66%   Direction: 310°NW
Pressure: 30.18"   Gusts: NA
Location:  42.3129°N, 84.0322°W
Report Text: KARB 272053Z 31006KT 10SM BKN040 OVC050 00/M06 A3018 RMK AO2 SNE36 SLP229 P0000 60000 T00001056 53011
Loading
Personal Weather Stations






























Interactive Weather Map New forecast layout! Learn more

10-Day Weather Forecast

Advertisements
Track Severe Weather on mobile